LSZCETSN

Guest
Details From LSZC - Buochs
To ETSN - NEUBURG
Flight Number -
Tags generated
Created
Modified
Stats Distance 154 nm / 285 km
Max Altitude 19,000 ft / 5,791 m
Waypoints 3
Social Downloads 1
Likes 0
Share VATSIM

Download

Looking for another format? Having issues loading an existing format? Contact us
Advertisement - Login to hide

Notes

Basic altitude profile: - Ascent Rate: 2500ft/min - Ascent Speed: 250kts - Cruise Altitude: 35000ft - Cruise Speed: 420kts - Descent Rate: 1500ft/min - Descent Speed: 250kts Options: - Use NATs: yes - Use PACOTS: yes - Use low airways: yes - Use high airways: yes

Route

LSZC ETOXU ETSN

ID Type Via Altitude Latitude Longitude Leg Dist Tot Dist Heading (true) Name
O LSZC APT - 0 ft / 0 m 46.97319˚ 8.39736˚ - 0 nm - Buochs
ETOXU FIX - 19,000 ft / 5,791 m 47.72583˚ 9.55056˚ 65 nm 65 nm 46° / 46° -
O ETSN APT - 0 ft / 0 m 48.71100˚ 11.21158˚ 88 nm 154 nm 48° / 49° NEUBURG

Altitude Profile

Advertisement - Login to hide

LSZC

Details ICAO LSZC (BXO)
Name Buochs
Region Switzerland
Timezone Europe/Zurich (UTC+1.0)
Stats Elevation 1,475 ft / 450 m (AMSL)
Location 46.973188° 8.397360°
Runways 2
Magnetic Variation 2.307° E

METAR

LSZC 180120Z AUTO 27004KT 210V310 9999 OVC140 M02/M06 Q1026

Decode

TAF

Not found

Departure Runways

ID Width Length Bearing (true) Bearing (mag) Surface Threshold Offset Overrun Length
07L 131 ft / 40 m 6,570 ft / 2,002 m 64.09° 61.78° Asphalt 0 ft / 0 m 650 ft / 198 m
07R 131 ft / 40 m 4,827 ft / 1,471 m 64.00° 61.69° Asphalt 0 ft / 0 m 1,161 ft / 354 m
25L 131 ft / 40 m 4,827 ft / 1,471 m 244.02° 241.71° Asphalt 0 ft / 0 m 1,161 ft / 354 m
25R 131 ft / 40 m 6,570 ft / 2,002 m 244.11° 241.80° Asphalt 0 ft / 0 m 650 ft / 198 m

ETSN

Details ICAO ETSN
Name NEUBURG
Region Germany - Military
Timezone Europe/Berlin (UTC+1.0)
Stats Elevation 1,249 ft / 381 m (AMSL)
Location 48.711000° 11.211583°
Runways 1
Magnetic Variation 3.032° E

METAR

ETSN 180120Z 18002KT 9999 BKN046 M01/M02 Q1024 BLU

Decode

TAF

Not found

Destination Runways

ID Width Length Bearing (true) Bearing (mag) Surface Threshold Offset Overrun Length
09 98 ft / 30 m 7,987 ft / 2,435 m 90.86° 87.83° Asphalt 0 ft / 0 m 902 ft / 275 m
27 98 ft / 30 m 7,987 ft / 2,435 m 270.89° 267.86° Asphalt 0 ft / 0 m 951 ft / 290 m